Flag for United Kingdom

Past Weather in Manchester, England, United Kingdom — July 2020

Currently: 45 °F. Fog. (Weather station: Manchester Airport, United Kingdom). See more current weather

July 2020 Weather in Manchester — Graph

°F

High & Low Weather Summary for July 2020

 TemperatureHumidityPressure
High90 °F (Jul 31, 2:50 pm)100% (Jul 1, 1:20 am)30.39 "Hg (Jul 1, 1:20 am)
Low43 °F (Jul 12, 4:20 am)33% (Jul 31, 1:50 pm)29.45 "Hg (Jul 27, 12:50 pm)
Average59 °F80%29.98 "Hg
* Reported Jul 1 12:20 am — Jul 31 11:50 pm, Manchester. Weather by CustomWeather, © 2020

Note: Actual official high and low records may vary slightly from our data, if they occured in-between our weather recording intervals... More about our weather records

Manchester Weather History for July 1, 2020

Scroll right to see more
 ConditionsComfort  
Time TempWeatherWind HumidityBarometerVisibility
12:20 am
Wed, Jul 1
55 °FPassing clouds.2 mph94%29.59 "HgN/A
12:50 am55 °FOvercast.1 mph94%29.59 "HgN/A
1:20 am55 °FRain. Passing clouds.7 mph100%29.59 "Hg1 mi
1:50 am55 °FLight rain. Mostly cloudy.5 mph94%29.59 "Hg4 mi
2:20 am55 °FMostly cloudy.2 mph94%29.59 "Hg4 mi
2:50 am55 °FFog.2 mph100%29.59 "Hg3 mi
3:20 am55 °FFog.3 mph100%29.59 "Hg3 mi
3:50 am55 °FPartly cloudy.2 mph100%29.59 "Hg4 mi
4:20 am55 °FOvercast.5 mph100%29.59 "Hg4 mi
4:50 am55 °FOvercast.5 mph100%29.59 "HgN/A
5:20 am55 °FScattered clouds.5 mph100%29.59 "HgN/A
5:50 am55 °FPartly sunny.3 mph100%29.59 "HgN/A
6:20 am55 °FPartly sunny.3 mph100%29.59 "HgN/A
6:50 am55 °FCloudy.3 mph100%29.59 "HgN/A
7:20 am57 °FPartly sunny.5 mph94%29.59 "HgN/A
7:50 am55 °FMore clouds than sun.6 mph100%29.59 "HgN/A
8:20 am57 °FSprinkles. Broken clouds.3 mph94%29.59 "Hg4 mi
8:50 am57 °FScattered showers. Broken clouds.3 mph94%29.62 "HgN/A
9:20 am57 °FLight rain. Broken clouds.6 mph94%29.62 "Hg5 mi
9:50 am57 °FSprinkles. Broken clouds.3 mph94%29.62 "HgN/A
10:20 am59 °FBroken clouds.3 mph88%29.62 "HgN/A
10:50 am61 °FScattered clouds.3 mph83%29.62 "Hg6 mi
11:20 am61 °FPartly sunny.5 mph83%29.62 "HgN/A
11:50 am59 °FSprinkles. More clouds than sun.10 mph88%29.62 "Hg3 mi
12:20 pm59 °FBroken clouds.5 mph88%29.65 "HgN/A
12:50 pm61 °FBroken clouds.3 mph88%29.65 "HgN/A
1:20 pm61 °FLight rain. Broken clouds.7 mph83%29.65 "HgN/A
1:50 pm63 °FMild.7 mph73%29.65 "HgN/A
2:20 pm64 °FBroken clouds.3 mph68%29.65 "HgN/A
2:50 pm66 °FScattered clouds.7 mph64%29.65 "HgN/A
3:20 pm66 °FBroken clouds.10 mph64%29.65 "HgN/A
3:50 pm64 °FPartly sunny.6 mph64%29.65 "HgN/A
4:20 pm66 °FPartly sunny.9 mph60%29.65 "HgN/A
4:50 pm64 °FLight rain. Scattered clouds.9 mph68%29.68 "HgN/A
5:20 pm64 °FLight rain. Partly sunny.8 mph68%29.68 "HgN/A
5:50 pm64 °FPartly sunny.8 mph64%29.68 "HgN/A
6:20 pm64 °FPartly sunny.7 mph64%29.68 "HgN/A
6:50 pm63 °FScattered clouds.8 mph68%29.68 "HgN/A
7:20 pm63 °FPartly sunny.10 mph68%29.68 "HgN/A
7:50 pm59 °FMostly cloudy.3 mph94%29.68 "HgN/A
8:20 pm59 °FMostly cloudy.3 mph82%29.68 "HgN/A
9:20 pm57 °FLight rain. Mostly cloudy.5 mph94%29.71 "Hg4 mi
9:50 pm57 °FPassing clouds.3 mph94%29.71 "Hg2 mi
10:20 pm55 °FHeavy rain. Partly cloudy.1 mph100%29.71 "Hg1 mi
10:50 pm55 °FDrizzle. Mostly cloudy.1 mph100%29.71 "Hg3 mi
11:20 pm55 °FPartly cloudy.3 mph100%29.74 "Hg1 mi
11:50 pm55 °FPartly cloudy.1 mph100%29.74 "Hg3 mi
Weather by CustomWeather, © 2020

See weather overview